createdAt,value
2023-02-20T00:00:22.329Z,9.681620
2023-02-20T00:01:22.352Z,9.681854
2023-02-20T00:02:22.361Z,9.681679
2023-02-20T00:03:22.392Z,9.681972
2023-02-20T00:04:22.291Z,9.681655
2023-02-20T00:05:22.314Z,9.680934
2023-02-20T00:06:22.297Z,9.680712
2023-02-20T00:07:22.291Z,9.680716
2023-02-20T00:08:22.272Z,9.681091
2023-02-20T00:09:22.259Z,9.680928
2023-02-20T00:10:22.282Z,9.680762
2023-02-20T00:11:22.238Z,9.680604
2023-02-20T00:12:22.294Z,9.680754
2023-02-20T00:13:22.234Z,9.680729
2023-02-20T00:14:22.230Z,9.680830
2023-02-20T00:15:22.214Z,9.681284
2023-02-20T00:16:22.223Z,9.681211
2023-02-20T00:17:22.221Z,9.681276
2023-02-20T00:18:22.264Z,9.681136
2023-02-20T00:19:22.212Z,9.681163
2023-02-20T00:20:22.204Z,9.680671
2023-02-20T00:21:22.219Z,9.680877
2023-02-20T00:22:22.186Z,9.681272
2023-02-20T00:23:22.194Z,9.680827
2023-02-20T00:24:22.199Z,9.680505
2023-02-20T00:25:22.172Z,9.680105
2023-02-20T00:26:22.216Z,9.680484
2023-02-20T00:27:22.243Z,9.681035
2023-02-20T00:28:22.161Z,9.681507
2023-02-20T00:29:22.150Z,9.681240
2023-02-20T00:30:22.285Z,9.680887
2023-02-20T00:31:22.187Z,9.681278
2023-02-20T00:32:22.169Z,9.681167
2023-02-20T00:33:22.131Z,9.681203
2023-02-20T00:34:22.122Z,9.681170
2023-02-20T00:35:22.129Z,9.681453
2023-02-20T00:36:22.148Z,9.681576
2023-02-20T00:37:22.118Z,9.682036
2023-02-20T00:38:22.151Z,9.681880
2023-02-20T00:39:22.146Z,9.681165
2023-02-20T00:40:22.105Z,9.681013
2023-02-20T00:41:22.088Z,9.681013
2023-02-20T00:42:22.074Z,9.681275
2023-02-20T00:43:22.070Z,9.681534
2023-02-20T00:44:22.065Z,9.681253
2023-02-20T00:45:22.085Z,9.681504
2023-02-20T00:46:22.125Z,9.681550
2023-02-20T00:47:22.048Z,9.681790
2023-02-20T00:48:22.053Z,9.680925
2023-02-20T00:49:22.050Z,9.681036
2023-02-20T00:50:22.068Z,9.681349
2023-02-20T00:51:22.076Z,9.681731
2023-02-20T00:52:22.031Z,9.681754
2023-02-20T00:53:22.056Z,9.680872
2023-02-20T00:54:22.048Z,9.680985
2023-02-20T00:55:22.016Z,9.680726
2023-02-20T00:56:22.004Z,9.680726
2023-02-20T00:57:22.034Z,9.680726
2023-02-20T00:58:21.992Z,9.680726
2023-02-20T00:59:21.979Z,9.680726
2023-02-20T01:00:21.979Z,9.680726
2023-02-20T01:01:22.017Z,9.680726
2023-02-20T01:02:21.957Z,9.680726
2023-02-20T01:03:21.983Z,9.680726
2023-02-20T01:04:21.956Z,9.680726
2023-02-20T01:05:21.975Z,9.680726
2023-02-20T01:06:21.970Z,9.680726
2023-02-20T01:07:21.936Z,9.680726
2023-02-20T01:08:21.950Z,9.680726
2023-02-20T01:09:21.965Z,9.680726
2023-02-20T01:10:21.916Z,9.680726
2023-02-20T01:11:21.914Z,9.680726
2023-02-20T01:12:21.919Z,9.680726
2023-02-20T01:13:21.941Z,9.680726
2023-02-20T01:14:21.908Z,9.680726
2023-02-20T01:15:21.979Z,9.680726
2023-02-20T01:16:22.070Z,9.680726
2023-02-20T01:17:22.116Z,9.680726
2023-02-20T01:18:22.161Z,9.680726
2023-02-20T01:19:21.881Z,9.680726
2023-02-20T01:20:21.860Z,9.680726
2023-02-20T01:21:21.849Z,9.680726
2023-02-20T01:22:21.837Z,9.680726
2023-02-20T01:23:21.840Z,9.680726
2023-02-20T01:24:21.837Z,9.680726
2023-02-20T01:25:21.838Z,9.680726
2023-02-20T01:26:21.879Z,9.680726
2023-02-20T01:27:21.819Z,9.680726
2023-02-20T01:28:21.807Z,9.680726
2023-02-20T01:29:21.821Z,9.680726
2023-02-20T01:30:21.814Z,9.680726
2023-02-20T01:31:21.922Z,9.680726
2023-02-20T01:32:21.789Z,9.680726
2023-02-20T01:33:21.795Z,9.680726
2023-02-20T01:34:21.787Z,9.680726
2023-02-20T01:35:21.787Z,9.680726
2023-02-20T01:36:21.794Z,9.680726
2023-02-20T01:37:21.741Z,9.680726
2023-02-20T01:38:21.743Z,9.680726
2023-02-20T01:39:21.744Z,9.680726
2023-02-20T01:40:21.728Z,9.680726
2023-02-20T01:41:21.728Z,9.680726
2023-02-20T01:42:21.747Z,9.680726
2023-02-20T01:43:21.723Z,9.680726
2023-02-20T01:44:21.737Z,9.680726
2023-02-20T01:45:21.717Z,9.680726
2023-02-20T01:46:21.750Z,9.680726
2023-02-20T01:47:21.705Z,9.680726
2023-02-20T01:48:21.723Z,9.680726
2023-02-20T01:49:21.698Z,9.680726
2023-02-20T01:50:21.674Z,9.680726
2023-02-20T01:51:21.687Z,9.680726
2023-02-20T01:52:21.685Z,9.680726
2023-02-20T01:53:21.689Z,9.680726
2023-02-20T01:54:21.682Z,9.680726
2023-02-20T01:55:21.651Z,9.680726
2023-02-20T01:56:21.656Z,9.680726
2023-02-20T01:57:21.648Z,9.680726
2023-02-20T01:58:21.642Z,9.680726
2023-02-20T01:59:21.646Z,9.680726
2023-02-20T02:00:21.634Z,9.680726
2023-02-20T02:01:21.665Z,9.680726
2023-02-20T02:02:21.641Z,9.680726
2023-02-20T02:03:21.624Z,9.680726
2023-02-20T02:04:21.617Z,9.680726
2023-02-20T02:05:21.598Z,9.680726
2023-02-20T02:06:21.597Z,9.680726
2023-02-20T02:07:21.607Z,9.681254
2023-02-20T02:08:21.596Z,9.681354
2023-02-20T02:09:21.572Z,9.681270
2023-02-20T02:10:21.607Z,9.680918
2023-02-20T02:11:21.587Z,9.680820
2023-02-20T02:12:21.605Z,9.681213
2023-02-20T02:13:21.543Z,9.681162
2023-02-20T02:14:21.554Z,9.681281
2023-02-20T02:15:21.530Z,9.681206
2023-02-20T02:16:21.626Z,9.680947
2023-02-20T02:17:21.517Z,9.681252
2023-02-20T02:18:21.536Z,9.681104
2023-02-20T02:19:21.501Z,9.681357
2023-02-20T02:20:21.490Z,9.681419
2023-02-20T02:21:21.528Z,9.680584
2023-02-20T02:22:21.487Z,9.681046
2023-02-20T02:23:21.465Z,9.681504
2023-02-20T02:24:21.481Z,9.680935
2023-02-20T02:25:21.465Z,9.681168
2023-02-20T02:26:21.463Z,9.681237
2023-02-20T02:27:21.495Z,9.681442
2023-02-20T02:28:21.451Z,9.680949
2023-02-20T02:29:21.438Z,9.681525
2023-02-20T02:30:21.525Z,9.681477
2023-02-20T02:31:21.549Z,9.681157
2023-02-20T02:32:21.444Z,9.681137
2023-02-20T02:33:21.436Z,9.681030
2023-02-20T02:34:21.440Z,9.681147
2023-02-20T02:35:21.398Z,9.681115
2023-02-20T02:36:21.387Z,9.681297
2023-02-20T02:37:21.374Z,9.681288
2023-02-20T02:38:21.386Z,9.680819
2023-02-20T02:39:21.432Z,9.680516
2023-02-20T02:40:21.364Z,9.680972
2023-02-20T02:41:21.353Z,9.681140
2023-02-20T02:42:21.351Z,9.681388
2023-02-20T02:43:21.347Z,9.680751
2023-02-20T02:44:21.367Z,9.680644
2023-02-20T02:45:21.327Z,9.681179
2023-02-20T02:46:21.336Z,9.680930
2023-02-20T02:47:21.323Z,9.681173
2023-02-20T02:48:21.339Z,9.681048
2023-02-20T02:49:21.310Z,9.680785
2023-02-20T02:50:21.306Z,9.680830
2023-02-20T02:51:21.326Z,9.680851
2023-02-20T02:52:21.313Z,9.680529
2023-02-20T02:53:21.297Z,9.680494
2023-02-20T02:54:21.293Z,9.681289
2023-02-20T02:55:21.297Z,9.681167
2023-02-20T02:56:21.290Z,9.681779
2023-02-20T02:57:21.281Z,9.682038
2023-02-20T02:58:21.301Z,9.681707
2023-02-20T02:59:21.255Z,9.681337
2023-02-20T03:00:21.261Z,9.681269
2023-02-20T03:01:21.294Z,9.681251
2023-02-20T03:02:21.360Z,9.680982
2023-02-20T03:03:21.252Z,9.680855
2023-02-20T03:04:21.244Z,9.680253
2023-02-20T03:05:21.235Z,9.680276
2023-02-20T03:06:21.216Z,9.680602
2023-02-20T03:07:21.215Z,9.681693
2023-02-20T03:08:21.203Z,9.681519
2023-02-20T03:09:21.206Z,9.681605
2023-02-20T03:10:21.203Z,9.681336
2023-02-20T03:11:21.204Z,9.681114
2023-02-20T03:12:21.180Z,9.680781
2023-02-20T03:13:21.188Z,9.681092
2023-02-20T03:14:21.173Z,9.681096
2023-02-20T03:15:21.178Z,9.681312
2023-02-20T03:16:21.191Z,9.680552
2023-02-20T03:17:21.142Z,9.679968
2023-02-20T03:18:21.149Z,9.679317
2023-02-20T03:19:21.121Z,9.679910
2023-02-20T03:20:21.132Z,9.679883
2023-02-20T03:21:21.135Z,9.679955
2023-02-20T03:22:21.141Z,9.680091
2023-02-20T03:23:21.114Z,9.680031
2023-02-20T03:24:21.111Z,9.679902
2023-02-20T03:25:21.130Z,9.679917
2023-02-20T03:26:21.191Z,9.679786
2023-02-20T03:27:21.092Z,9.679933
2023-02-20T03:28:21.114Z,9.679768
2023-02-20T03:29:21.082Z,9.679991
2023-02-20T03:30:21.125Z,9.680223
2023-02-20T03:31:21.166Z,9.681188
2023-02-20T03:32:21.141Z,9.681252
2023-02-20T03:33:21.060Z,9.680965
2023-02-20T03:34:21.083Z,9.680794
2023-02-20T03:35:21.042Z,9.680950
2023-02-20T03:36:21.050Z,9.680781
2023-02-20T03:37:21.034Z,9.681085
2023-02-20T03:38:21.020Z,9.681092
2023-02-20T03:39:21.033Z,9.680893
2023-02-20T03:40:21.061Z,9.681211
2023-02-20T03:41:21.027Z,9.680589
2023-02-20T03:42:21.036Z,9.680456
2023-02-20T03:43:20.994Z,9.680421
2023-02-20T03:44:21.004Z,9.680146
2023-02-20T03:45:21.009Z,9.680517
2023-02-20T03:46:21.048Z,9.680700
2023-02-20T03:47:20.999Z,9.680700
2023-02-20T03:48:20.972Z,9.681123
2023-02-20T03:49:20.978Z,9.680918
2023-02-20T03:50:20.973Z,9.680773
2023-02-20T03:51:20.977Z,9.680718
2023-02-20T03:52:20.968Z,9.680432
2023-02-20T03:53:20.965Z,9.681063
2023-02-20T03:54:20.966Z,9.680936
2023-02-20T03:55:20.934Z,9.681055
2023-02-20T03:56:20.953Z,9.681102
2023-02-20T03:57:20.926Z,9.681102
2023-02-20T03:58:20.940Z,9.680511
2023-02-20T03:59:20.913Z,9.680057
2023-02-20T04:00:20.944Z,9.680192
2023-02-20T04:01:20.948Z,9.680327
2023-02-20T04:02:20.930Z,9.679912
2023-02-20T04:03:20.897Z,9.680339
2023-02-20T04:04:20.889Z,9.682035
2023-02-20T04:05:20.875Z,9.680191
2023-02-20T04:06:20.893Z,9.679767
2023-02-20T04:07:20.879Z,9.680122
2023-02-20T04:08:20.864Z,9.681645
2023-02-20T04:09:20.856Z,9.680992
2023-02-20T04:10:20.869Z,9.681055
2023-02-20T04:11:20.865Z,9.681428
2023-02-20T04:12:20.842Z,9.681021
2023-02-20T04:13:20.828Z,9.680690
2023-02-20T04:14:20.829Z,9.681079
2023-02-20T04:15:20.848Z,9.681186
2023-02-20T04:16:20.853Z,9.681078
2023-02-20T04:17:20.808Z,9.681059
2023-02-20T04:18:20.810Z,9.681567
2023-02-20T04:19:20.805Z,9.681190
2023-02-20T04:20:20.797Z,9.681153
2023-02-20T04:21:20.797Z,9.680854
2023-02-20T04:22:20.813Z,9.681222
2023-02-20T04:23:20.790Z,9.681584
2023-02-20T04:24:20.777Z,9.681741
2023-02-20T04:25:20.782Z,9.681750
2023-02-20T04:26:20.790Z,9.681264
2023-02-20T04:27:20.759Z,9.681275
2023-02-20T04:28:20.776Z,9.681614
2023-02-20T04:29:20.742Z,9.681635
2023-02-20T04:30:20.786Z,9.681507
2023-02-20T04:31:20.801Z,9.681141
2023-02-20T04:32:20.765Z,9.679354
2023-02-20T04:33:20.745Z,9.679953
2023-02-20T04:34:20.727Z,9.679592
2023-02-20T04:35:20.705Z,9.679721
2023-02-20T04:36:20.702Z,9.680744
2023-02-20T04:37:20.721Z,9.681290
2023-02-20T04:38:20.709Z,9.681089
2023-02-20T04:39:20.685Z,9.681503
2023-02-20T04:40:20.682Z,9.680640
2023-02-20T04:41:20.695Z,9.680405
2023-02-20T04:42:20.678Z,9.680752
2023-02-20T04:43:20.664Z,9.680971
2023-02-20T04:44:20.686Z,9.681560
2023-02-20T04:45:20.651Z,9.681209
2023-02-20T04:46:20.708Z,9.680931
2023-02-20T04:47:20.642Z,9.680888
2023-02-20T04:48:20.646Z,9.680961
2023-02-20T04:49:20.629Z,9.681007
2023-02-20T04:50:20.653Z,9.680998
2023-02-20T04:51:20.619Z,9.680979
2023-02-20T04:52:20.615Z,9.680915
2023-02-20T04:53:20.602Z,9.680891
2023-02-20T04:54:20.594Z,9.681772
2023-02-20T04:55:20.622Z,9.681677
2023-02-20T04:56:20.601Z,9.681136
2023-02-20T04:57:20.596Z,9.681081
2023-02-20T04:58:20.587Z,9.680802
2023-02-20T04:59:20.564Z,9.680678
2023-02-20T05:00:20.595Z,9.680546
2023-02-20T05:01:20.628Z,9.680236
2023-02-20T05:02:20.572Z,9.679967
2023-02-20T05:03:20.574Z,9.680154
2023-02-20T05:04:20.639Z,9.680033
2023-02-20T05:05:20.565Z,9.680396
2023-02-20T05:06:20.569Z,9.680412
2023-02-20T05:07:20.565Z,9.680847
2023-02-20T05:08:20.557Z,9.681047
2023-02-20T05:09:20.549Z,9.681038
2023-02-20T05:10:20.569Z,9.681058
2023-02-20T05:11:20.508Z,9.681036
2023-02-20T05:12:20.543Z,9.680855
2023-02-20T05:13:20.545Z,9.680981
2023-02-20T05:14:20.559Z,9.680815
2023-02-20T05:15:20.500Z,9.681061
2023-02-20T05:16:20.525Z,9.681205
2023-02-20T05:17:20.480Z,9.681414
2023-02-20T05:18:20.484Z,9.681498
2023-02-20T05:19:20.485Z,9.681395
2023-02-20T05:20:20.492Z,9.681314
2023-02-20T05:21:20.480Z,9.681268
2023-02-20T05:22:20.469Z,9.681054
2023-02-20T05:23:20.461Z,9.680904
2023-02-20T05:24:20.442Z,9.680799
2023-02-20T05:25:20.438Z,9.681147
2023-02-20T05:26:20.516Z,9.681418
2023-02-20T05:27:20.434Z,9.681431
2023-02-20T05:28:20.433Z,9.681176
2023-02-20T05:29:20.420Z,9.680973
2023-02-20T05:30:20.464Z,9.680962
2023-02-20T05:31:20.487Z,9.681017
2023-02-20T05:32:20.429Z,9.681135
2023-02-20T05:33:20.428Z,9.681091
2023-02-20T05:34:20.398Z,9.681236
2023-02-20T05:35:20.403Z,9.681114
2023-02-20T05:36:20.403Z,9.680921
2023-02-20T05:37:20.392Z,9.680571
2023-02-20T05:38:20.370Z,9.680668
2023-02-20T05:39:20.376Z,9.680758
2023-02-20T05:40:20.411Z,9.680725
2023-02-20T05:41:20.383Z,9.681036
2023-02-20T05:42:20.363Z,9.680902
2023-02-20T05:43:20.346Z,9.680784
2023-02-20T05:44:20.337Z,9.680780
2023-02-20T05:45:20.357Z,9.680998
2023-02-20T05:46:20.396Z,9.680994
2023-02-20T05:47:20.319Z,9.681339
2023-02-20T05:48:20.306Z,9.681051
2023-02-20T05:49:20.326Z,9.681050
2023-02-20T05:50:20.319Z,9.681988
2023-02-20T05:51:20.317Z,9.681167
2023-02-20T05:52:20.317Z,9.680999
2023-02-20T05:53:20.306Z,9.680935
2023-02-20T05:54:20.293Z,9.681203
2023-02-20T05:55:20.291Z,9.681478
2023-02-20T05:56:20.267Z,9.681305
2023-02-20T05:57:20.286Z,9.681429
2023-02-20T05:58:20.274Z,9.681397
2023-02-20T05:59:20.280Z,9.681096
2023-02-20T06:00:20.259Z,9.680799
2023-02-20T06:01:20.240Z,9.681240
2023-02-20T06:02:20.236Z,9.681437
2023-02-20T06:03:20.228Z,9.680906
2023-02-20T06:04:20.338Z,9.680546
2023-02-20T06:05:20.225Z,9.680852
2023-02-20T06:06:20.208Z,9.681028
2023-02-20T06:07:20.236Z,9.680696
2023-02-20T06:08:20.202Z,9.683449
2023-02-20T06:09:20.197Z,9.683449
2023-02-20T06:10:20.191Z,9.683449
2023-02-20T06:11:20.196Z,9.681070
2023-02-20T06:12:20.179Z,9.681396
2023-02-20T06:13:20.207Z,9.681879
2023-02-20T06:14:20.182Z,9.681195
2023-02-20T06:15:20.197Z,9.682453
2023-02-20T06:16:20.215Z,9.681045
2023-02-20T06:17:20.165Z,9.680782
2023-02-20T06:18:20.150Z,9.680782
2023-02-20T06:19:20.177Z,9.680782
2023-02-20T06:20:20.158Z,9.681117
2023-02-20T06:21:20.137Z,9.680988
2023-02-20T06:22:20.141Z,9.680988
2023-02-20T06:23:20.143Z,9.680988
2023-02-20T06:24:20.125Z,9.680988
2023-02-20T06:25:20.124Z,9.681865
2023-02-20T06:26:20.108Z,9.681865
2023-02-20T06:27:20.105Z,9.683105
2023-02-20T06:28:20.090Z,9.682323
2023-02-20T06:29:20.117Z,9.681664
2023-02-20T06:30:20.109Z,9.681437
2023-02-20T06:31:20.118Z,9.681708
2023-02-20T06:32:20.126Z,9.681791
2023-02-20T06:33:20.080Z,9.681929
2023-02-20T06:34:20.064Z,9.681929
2023-02-20T06:35:20.071Z,9.681615
2023-02-20T06:36:20.065Z,9.680109
2023-02-20T06:37:20.055Z,9.679944
2023-02-20T06:38:20.076Z,9.680601
2023-02-20T06:39:20.041Z,9.681457
2023-02-20T06:40:20.049Z,9.681474
2023-02-20T06:41:20.034Z,9.681474
2023-02-20T06:42:20.034Z,9.681474
2023-02-20T06:43:20.018Z,9.681474
2023-02-20T06:44:20.038Z,9.681474
2023-02-20T06:45:20.006Z,9.681780
2023-02-20T06:46:20.032Z,9.681520
2023-02-20T06:47:20.015Z,9.680833
2023-02-20T06:48:19.988Z,9.680436
2023-02-20T06:49:19.991Z,9.680324
2023-02-20T06:50:20.010Z,9.680324
2023-02-20T06:51:20.014Z,9.680324
2023-02-20T06:52:19.986Z,9.681237
2023-02-20T06:53:19.969Z,9.681502
2023-02-20T06:54:19.982Z,9.681502
2023-02-20T06:55:19.946Z,9.681502
2023-02-20T06:56:19.986Z,9.680987
2023-02-20T06:57:19.939Z,9.680617
2023-02-20T06:58:19.954Z,9.680564
2023-02-20T06:59:19.930Z,9.680387
2023-02-20T07:00:19.942Z,9.680387
2023-02-20T07:01:19.943Z,9.680387
2023-02-20T07:02:19.989Z,9.682104
2023-02-20T07:03:19.904Z,9.682510
2023-02-20T07:04:19.897Z,9.681217
2023-02-20T07:05:19.897Z,9.681017
2023-02-20T07:06:19.928Z,9.680966
2023-02-20T07:07:19.872Z,9.680853
2023-02-20T07:08:19.870Z,9.680694
2023-02-20T07:09:19.868Z,9.681505
2023-02-20T07:10:19.888Z,9.681616
2023-02-20T07:11:19.881Z,9.680862
2023-02-20T07:12:19.880Z,9.681239
2023-02-20T07:13:19.854Z,9.681372
2023-02-20T07:14:19.857Z,9.681025
2023-02-20T07:15:19.903Z,9.681182
2023-02-20T07:16:19.880Z,9.680792
2023-02-20T07:17:19.822Z,9.680993
2023-02-20T07:18:19.821Z,9.680981
2023-02-20T07:19:19.809Z,9.680981
2023-02-20T07:20:19.822Z,9.680779
2023-02-20T07:21:19.817Z,9.681635
2023-02-20T07:22:19.828Z,9.681788
2023-02-20T07:23:19.780Z,9.680968
2023-02-20T07:24:19.779Z,9.680962
2023-02-20T07:25:19.771Z,9.680808
2023-02-20T07:26:19.810Z,9.681389
2023-02-20T07:27:19.782Z,9.681351
2023-02-20T07:28:19.762Z,9.680951
2023-02-20T07:29:19.794Z,9.680984
2023-02-20T07:30:19.785Z,9.680697
2023-02-20T07:31:19.788Z,9.680551
2023-02-20T07:32:19.804Z,9.680918
2023-02-20T07:33:19.721Z,9.681063
2023-02-20T07:34:19.724Z,9.681234
2023-02-20T07:35:19.737Z,9.681234
2023-02-20T07:36:19.711Z,9.681234
2023-02-20T07:37:19.707Z,9.681234
2023-02-20T07:38:19.702Z,9.680706
2023-02-20T07:39:19.724Z,9.680951
2023-02-20T07:40:19.690Z,9.680185
2023-02-20T07:41:19.716Z,9.680226
2023-02-20T07:42:19.710Z,9.680475
2023-02-20T07:43:19.692Z,9.680339
2023-02-20T07:44:19.660Z,9.680838
2023-02-20T07:45:19.664Z,9.681025
2023-02-20T07:46:20.498Z,9.680979
2023-02-20T07:47:19.646Z,9.680703
2023-02-20T07:48:19.666Z,9.681034
2023-02-20T07:49:19.638Z,9.681378
2023-02-20T07:50:19.641Z,9.681533
2023-02-20T07:51:19.647Z,9.680924
2023-02-20T07:52:19.637Z,9.681151
2023-02-20T07:53:19.629Z,9.681075
2023-02-20T07:54:19.625Z,9.681190
2023-02-20T07:55:19.596Z,9.680744
2023-02-20T07:56:19.623Z,9.680771
2023-02-20T07:57:19.624Z,9.680827
2023-02-20T07:58:19.627Z,9.681828
2023-02-20T07:59:19.599Z,9.681614
2023-02-20T08:00:19.612Z,9.681161
2023-02-20T08:01:19.608Z,9.681083
2023-02-20T08:02:19.613Z,9.681125
2023-02-20T08:03:19.548Z,9.680960
2023-02-20T08:04:19.566Z,9.680697
2023-02-20T08:05:19.574Z,9.680849
2023-02-20T08:06:19.534Z,9.680885
2023-02-20T08:07:19.554Z,9.680701
2023-02-20T08:08:19.534Z,9.681234
2023-02-20T08:09:19.503Z,9.681354
2023-02-20T08:10:19.518Z,9.680906
2023-02-20T08:11:19.569Z,9.681122
2023-02-20T08:12:19.509Z,9.681212
2023-02-20T08:13:19.488Z,9.681302
2023-02-20T08:14:19.481Z,9.681146
2023-02-20T08:15:19.483Z,9.680964
2023-02-20T08:16:19.520Z,9.680905
2023-02-20T08:17:19.534Z,9.680988
2023-02-20T08:18:23.913Z,9.681096
2023-02-20T08:19:19.530Z,9.680973
2023-02-20T08:20:19.470Z,9.681109
2023-02-20T08:21:19.462Z,9.680808
2023-02-20T08:22:19.433Z,9.681013
2023-02-20T08:23:19.443Z,9.681088
2023-02-20T08:24:19.420Z,9.681359
2023-02-20T08:25:19.442Z,9.681206
2023-02-20T08:26:19.405Z,9.681182
2023-02-20T08:27:19.392Z,9.681384
2023-02-20T08:28:19.385Z,9.681293
2023-02-20T08:29:19.396Z,9.681171
2023-02-20T08:30:19.421Z,9.681051
2023-02-20T08:31:31.250Z,9.681024
2023-02-20T08:32:20.488Z,9.680916
2023-02-20T08:33:19.361Z,9.680870
2023-02-20T08:34:19.363Z,9.681334
2023-02-20T08:35:19.374Z,9.681210
2023-02-20T08:36:19.344Z,9.681060
2023-02-20T08:37:19.331Z,9.681167
2023-02-20T08:38:19.325Z,9.681142
2023-02-20T08:39:19.321Z,9.681446
2023-02-20T08:40:19.332Z,9.681356
2023-02-20T08:41:19.338Z,9.681089
2023-02-20T08:42:19.297Z,9.681049
2023-02-20T08:43:19.322Z,9.681317
2023-02-20T08:44:19.284Z,9.681373
2023-02-20T08:45:19.308Z,9.681248
2023-02-20T08:46:19.297Z,9.681277
2023-02-20T08:47:19.316Z,9.681540
2023-02-20T08:48:19.293Z,9.681436
2023-02-20T08:49:21.088Z,9.681170
2023-02-20T08:50:19.278Z,9.681483
2023-02-20T08:51:19.241Z,9.681235
2023-02-20T08:52:19.226Z,9.680827
2023-02-20T08:53:19.251Z,9.681108
2023-02-20T08:54:19.247Z,9.681066
2023-02-20T08:55:19.229Z,9.680726
2023-02-20T08:56:19.245Z,9.681052
2023-02-20T08:57:19.218Z,9.681190
2023-02-20T08:58:19.221Z,9.681368
2023-02-20T08:59:19.217Z,9.681252
2023-02-20T09:00:19.318Z,9.680878
2023-02-20T09:01:19.212Z,9.681127
2023-02-20T09:02:19.221Z,9.681026
2023-02-20T09:03:19.247Z,9.680218
2023-02-20T09:04:19.202Z,9.680486
2023-02-20T09:05:19.185Z,9.680608
2023-02-20T09:06:19.180Z,9.681067
2023-02-20T09:07:19.173Z,9.680863
2023-02-20T09:08:19.145Z,9.681571
2023-02-20T09:09:19.154Z,9.681464
2023-02-20T09:10:19.124Z,9.681349
2023-02-20T09:11:19.176Z,9.681057
2023-02-20T09:12:19.121Z,9.681227
2023-02-20T09:13:19.120Z,9.681202
2023-02-20T09:14:19.105Z,9.681022
2023-02-20T09:15:19.118Z,9.681161
2023-02-20T09:16:19.146Z,9.680916
2023-02-20T09:17:19.106Z,9.681040
2023-02-20T09:18:19.084Z,9.681503
2023-02-20T09:19:19.110Z,9.681166
2023-02-20T09:20:19.076Z,9.681178
2023-02-20T09:21:19.075Z,9.681366
2023-02-20T09:22:19.119Z,9.681187
2023-02-20T09:23:19.073Z,9.681293
2023-02-20T09:24:19.053Z,9.680897
2023-02-20T09:25:19.046Z,9.681039
2023-02-20T09:26:19.065Z,9.681061
2023-02-20T09:27:19.066Z,9.681079
2023-02-20T09:28:19.098Z,9.681391
2023-02-20T09:29:19.034Z,9.681208
2023-02-20T09:30:19.057Z,9.681140
2023-02-20T09:31:19.037Z,9.681064
2023-02-20T09:32:19.069Z,9.681227
2023-02-20T09:33:19.013Z,9.681171
2023-02-20T09:34:18.973Z,9.681002
2023-02-20T09:35:19.000Z,9.680945
2023-02-20T09:36:18.968Z,9.681000
2023-02-20T09:37:19.022Z,9.681082
2023-02-20T09:38:18.979Z,9.681030
2023-02-20T09:39:18.947Z,9.681164
2023-02-20T09:40:18.947Z,9.680945
2023-02-20T09:41:18.953Z,9.681118
2023-02-20T09:42:18.928Z,9.681002
2023-02-20T09:43:18.949Z,9.681170
2023-02-20T09:44:18.906Z,9.680813
2023-02-20T09:45:18.899Z,9.681317
2023-02-20T09:46:18.955Z,9.681105
2023-02-20T09:47:18.903Z,9.681037
2023-02-20T09:48:18.877Z,9.681196
2023-02-20T09:49:18.893Z,9.680772
2023-02-20T09:50:18.848Z,9.681622
2023-02-20T09:51:18.881Z,9.681331
2023-02-20T09:52:18.849Z,9.681050
2023-02-20T09:53:18.833Z,9.681169
2023-02-20T09:54:18.830Z,9.681142
2023-02-20T09:55:18.839Z,9.681201
2023-02-20T09:56:18.812Z,9.680922
2023-02-20T09:57:18.850Z,9.680510
2023-02-20T09:58:18.815Z,9.681230
2023-02-20T09:59:18.818Z,9.681579
2023-02-20T10:00:18.778Z,9.680980
2023-02-20T10:01:18.761Z,9.681108
2023-02-20T10:02:18.841Z,9.680686
2023-02-20T10:03:18.971Z,9.681697
2023-02-20T10:04:18.802Z,9.681175
2023-02-20T10:05:18.740Z,9.681275
2023-02-20T10:06:18.716Z,9.680854
2023-02-20T10:07:18.716Z,9.680886
2023-02-20T10:08:18.740Z,9.680850
2023-02-20T10:09:18.710Z,9.681172
2023-02-20T10:10:18.701Z,9.681277
2023-02-20T10:11:18.733Z,9.681205
2023-02-20T10:12:18.679Z,9.680974
2023-02-20T10:13:18.681Z,9.681252
2023-02-20T10:14:18.672Z,9.681339
2023-02-20T10:15:18.649Z,9.681340
2023-02-20T10:16:18.700Z,9.681130
2023-02-20T10:17:18.659Z,9.681527
2023-02-20T10:18:18.704Z,9.682175
2023-02-20T10:19:18.629Z,9.682001
2023-02-20T10:20:18.628Z,9.681927
2023-02-20T10:21:18.598Z,9.681326
2023-02-20T10:22:18.618Z,9.681173
2023-02-20T10:23:18.668Z,9.681074
2023-02-20T10:24:18.575Z,9.680809
2023-02-20T10:25:18.570Z,9.680893
2023-02-20T10:26:18.565Z,9.680977
2023-02-20T10:27:18.544Z,9.681316
2023-02-20T10:28:18.565Z,9.681512
2023-02-20T10:29:18.531Z,9.681357
2023-02-20T10:30:18.603Z,9.681346
2023-02-20T10:31:18.619Z,9.681152
2023-02-20T10:32:18.572Z,9.681147
2023-02-20T10:33:18.523Z,9.680989
2023-02-20T10:34:18.482Z,9.680930
2023-02-20T10:35:18.521Z,9.681242
2023-02-20T10:36:18.471Z,9.681052
2023-02-20T10:37:18.487Z,9.680990
2023-02-20T10:38:18.450Z,9.681082
2023-02-20T10:39:18.469Z,9.681117
2023-02-20T10:40:18.441Z,9.681143
2023-02-20T10:41:18.452Z,9.681243
2023-02-20T10:42:18.415Z,9.681107
2023-02-20T10:43:18.414Z,9.681065
2023-02-20T10:46:34.323Z,9.681598
2023-02-20T10:47:28.629Z,9.681148
2023-02-20T10:48:27.626Z,9.681148
2023-02-20T10:49:27.603Z,9.681052
2023-02-20T10:50:27.598Z,9.681342
2023-02-20T10:51:27.601Z,9.681405
2023-02-20T10:52:34.254Z,9.681108
2023-02-20T10:53:28.565Z,9.681063
2023-02-20T10:54:27.560Z,9.681287
2023-02-20T10:55:27.560Z,9.681348
2023-02-20T10:56:27.543Z,9.681005
2023-02-20T10:57:27.562Z,9.681344
2023-02-20T10:58:27.533Z,9.681096
2023-02-20T10:59:27.530Z,9.681264
2023-02-20T11:00:27.525Z,9.681190
2023-02-20T11:01:27.577Z,9.681157
2023-02-20T11:02:27.495Z,9.681157
2023-02-20T11:03:27.504Z,9.681140
2023-02-20T11:04:27.537Z,9.681242
2023-02-20T11:05:27.501Z,9.681297
2023-02-20T11:06:27.479Z,9.681069
2023-02-20T11:07:27.469Z,9.681333
2023-02-20T11:08:27.497Z,9.680949
2023-02-20T11:09:27.430Z,9.681513
2023-02-20T11:10:27.449Z,9.681684
2023-02-20T11:11:27.421Z,9.681108
2023-02-20T11:12:27.409Z,9.681108
2023-02-20T11:13:27.408Z,9.681103
2023-02-20T11:14:40.109Z,9.680886
2023-02-20T11:15:28.524Z,9.681413
2023-02-20T11:16:27.403Z,9.681322
2023-02-20T11:17:27.434Z,9.681204
2023-02-20T11:18:27.364Z,9.681007
2023-02-20T11:19:27.375Z,9.681062
2023-02-20T11:20:27.345Z,9.681085
2023-02-20T11:21:27.388Z,9.681084
2023-02-20T11:22:27.332Z,9.681135
2023-02-20T11:23:27.341Z,9.681369
2023-02-20T11:24:27.329Z,9.681321
2023-02-20T11:25:27.375Z,9.681125
2023-02-20T11:26:27.354Z,9.681235
2023-02-20T11:27:27.313Z,9.681233
2023-02-20T11:28:27.317Z,9.681045
2023-02-20T11:29:27.308Z,9.680986
2023-02-20T11:30:27.348Z,9.680580
2023-02-20T11:31:27.406Z,9.680608
2023-02-20T11:32:27.269Z,9.680932
2023-02-20T11:33:27.278Z,9.680978
2023-02-20T11:34:27.267Z,9.681265
2023-02-20T11:35:27.260Z,9.681224
2023-02-20T11:36:27.231Z,9.681075
2023-02-20T11:37:27.225Z,9.680441
2023-02-20T11:38:27.230Z,9.680795
2023-02-20T11:39:27.218Z,9.681247
2023-02-20T11:40:27.238Z,9.681068
2023-02-20T11:41:27.307Z,9.681341
2023-02-20T11:42:27.168Z,9.681176
2023-02-20T11:43:27.208Z,9.681138
2023-02-20T11:44:27.168Z,9.681603
2023-02-20T11:45:27.160Z,9.681690
2023-02-20T11:46:27.229Z,9.681360